logo
Rechercher aéroport 
image banner adimage banner adimage banner ad
image banner ad

EIKN - Ireland West

Situé à Knock Airport Business Park, Ireland

ICAO - EIKN, IATA - NOC

Données fournies par Airmate  

Information générale

Coordonnées: N53°54'37" W8°49'7"
Élévation : 665 feet MSL.
Variation magnétique : -3° East
Voir autres Aéroports à County Mayo

Données opérationnelles

Special qualification required
Heure actuelle UTC:
Heure actuelle locale:
Météo
METAR: EIKN 201230Z 15004KT 060V230 9999 BKN035 22/15 Q1014 NOSIG
TAF: TAF AMD EIKN 201146Z 2012/2112 13006KT 9999 FEW025 TEMPO 2012/2024 3000 SHRA SCT018CB PROB40 TEMPO 2013/2021 2000 TSRAGS BKN010 BKN018CB BECMG 2100/2102 2000 BR SCT001 BKN003 PROB40 TEMPO 2100/2102 -SHRA FEW018CB TEMPO 2102/2109 0300 FG BKN001 BECMG 2109/2111 34010KT 6000 SCT003 BKN010 PROB40 TEMPO 2109/2112 4000 SHRA SCT018CB
Voir NOTAMs / SUP AIP / TFR affectant cet aéroport [VIEW]
Fréquences de communication: [VIEW]

Pistes:

Identifiant RWYQFULongueur (ft)Largeur (ft)SurfaceLDA (ft)
0879°7546148ASPH7044
26259°7546148ASPH7546

Coordonnées de l'aéroport

Adresse: Knock Airport Business Park Ireland

Autres services d'aviation

Écoles de pilotage

Connaught Aero Club Ltd

Connaught Aero Club Ltd
info@connaughtaeroclub.ie+353949254306
+353949254306

Vue satellite de EIKN